Time;durP1;ratioP1;P1;durP2;ratioP2;P2;SDS_P1;SDS_P2;PMS_P1;PMS_P2;Temp;Humidity;BMP_temperature;BMP_pressure;BME280_temperature;BME280_humidity;BME280_pressure;Samples;Min_cycle;Max_cycle;Signal;HPM_P1;HPM_P2
2021/12/12 00:00:41;;;;;;;22.73;10.03;;;;;;;;;;4983197;28;20483;-79
2021/12/12 00:03:32;;;;;;;15.47;10.87;;;;;;;;;;4983976;28;20424;-79
2021/12/12 00:05:59;;;;;;;19.30;10.43;;;;;;;;;;4983933;28;20457;-79
2021/12/12 00:08:26;;;;;;;17.37;10.97;;;;;;;;;;4976346;28;20531;-79
2021/12/12 00:10:56;;;;;;;17.57;10.87;;;;;;;;;;4986419;28;20435;-79
2021/12/12 00:13:28;;;;;;;15.70;10.53;;;;;;;;;;4984881;28;20494;-80
2021/12/12 00:15:54;;;;;;;17.57;11.50;;;;;;;;;;4987363;28;20459;-78
2021/12/12 00:18:20;;;;;;;17.17;10.27;;;;;;;;;;4981598;28;20568;-78
2021/12/12 00:20:47;;;;;;;18.47;11.17;;;;;;;;;;4982852;28;21088;-80
2021/12/12 00:23:13;;;;;;;15.70;10.70;;;;;;;;;;4980836;28;20439;-78
2021/12/12 00:25:42;;;;;;;14.73;10.23;;;;;;;;;;4966669;28;20487;-78
2021/12/12 00:28:09;;;;;;;15.47;10.53;;;;;;;;;;4978150;28;20420;-78
2021/12/12 00:30:36;;;;;;;15.03;10.90;;;;;;;;;;4982800;28;20440;-78
2021/12/12 00:33:02;;;;;;;18.70;10.67;;;;;;;;;;4967361;28;20484;-78
2021/12/12 00:35:29;;;;;;;14.40;9.73;;;;;;;;;;4978243;28;20421;-78
2021/12/12 00:37:58;;;;;;;16.00;11.57;;;;;;;;;;4982161;28;21212;-77
2021/12/12 00:40:29;;;;;;;18.70;10.97;;;;;;;;;;4980109;28;20448;-77
2021/12/12 00:42:57;;;;;;;15.03;9.47;;;;;;;;;;4997499;28;20427;-78
2021/12/12 00:45:24;;;;;;;17.37;9.57;;;;;;;;;;4981914;28;20427;-77
2021/12/12 00:47:50;;;;;;;15.43;10.50;;;;;;;;;;4995945;28;20424;-77
2021/12/12 00:50:25;;;;;;;16.77;10.47;;;;;;;;;;4963432;28;20439;-77
2021/12/12 00:52:52;;;;;;;14.57;9.37;;;;;;;;;;4977242;28;22960;-78
2021/12/12 00:55:18;;;;;;;15.67;9.30;;;;;;;;;;4971070;28;20440;-78
2021/12/12 00:57:50;;;;;;;14.37;9.10;;;;;;;;;;4982887;28;20424;-77
2021/12/12 01:00:18;;;;;;;13.67;7.87;;;;;;;;;;4968742;28;20449;-77
2021/12/12 01:02:44;;;;;;;13.50;7.80;;;;;;;;;;4974896;28;20424;-77
2021/12/12 01:05:12;;;;;;;13.40;8.43;;;;;;;;;;4976052;28;21298;-77
2021/12/12 01:07:39;;;;;;;13.53;8.20;;;;;;;;;;4976536;28;20437;-77
2021/12/12 01:10:10;;;;;;;14.90;8.30;;;;;;;;;;4960263;28;21420;-77
2021/12/12 01:12:37;;;;;;;11.53;7.33;;;;;;;;;;4976691;28;20425;-77
2021/12/12 01:15:12;;;;;;;9.67;6.87;;;;;;;;;;4978562;28;20734;-77
2021/12/12 01:17:42;;;;;;;13.97;7.30;;;;;;;;;;4978343;28;21058;-77
2021/12/12 01:20:21;;;;;;;14.40;8.50;;;;;;;;;;4979355;28;21359;-77
2021/12/12 01:22:48;;;;;;;11.13;7.83;;;;;;;;;;4959526;28;20416;-77
2021/12/12 01:25:19;;;;;;;13.20;8.70;;;;;;;;;;4975942;28;20510;-77
2021/12/12 01:27:45;;;;;;;12.10;8.27;;;;;;;;;;4978958;28;20431;-77
2021/12/12 01:30:12;;;;;;;12.67;8.63;;;;;;;;;;4963561;28;20626;-78
2021/12/12 01:32:38;;;;;;;12.83;7.97;;;;;;;;;;4980527;28;20463;-78
2021/12/12 01:35:14;;;;;;;12.80;7.30;;;;;;;;;;4976481;28;20432;-77
2021/12/12 01:37:43;;;;;;;11.03;6.50;;;;;;;;;;4995814;28;20444;-77
2021/12/12 01:40:12;;;;;;;10.57;6.73;;;;;;;;;;4975047;28;21297;-77
2021/12/12 01:42:41;;;;;;;11.03;6.73;;;;;;;;;;4962005;28;20428;-77
2021/12/12 01:45:13;;;;;;;9.80;6.73;;;;;;;;;;4979521;28;20433;-77
2021/12/12 01:47:59;;;;;;;10.40;6.47;;;;;;;;;;4979937;28;20428;-77
2021/12/12 01:50:29;;;;;;;10.60;6.70;;;;;;;;;;4978249;28;20444;-77
2021/12/12 01:52:56;;;;;;;14.03;8.00;;;;;;;;;;4979874;28;20436;-77
2021/12/12 01:55:26;;;;;;;15.30;7.37;;;;;;;;;;4978033;28;21212;-77
2021/12/12 01:57:56;;;;;;;11.33;7.43;;;;;;;;;;4980416;28;20456;-77
2021/12/12 02:00:33;;;;;;;13.53;6.97;;;;;;;;;;4967029;28;21315;-77
2021/12/12 02:02:59;;;;;;;12.03;7.60;;;;;;;;;;4960294;28;20840;-77
2021/12/12 02:05:26;;;;;;;11.93;7.10;;;;;;;;;;4961702;28;20459;-77
2021/12/12 02:07:58;;;;;;;15.40;7.70;;;;;;;;;;4979041;28;20424;-77
2021/12/12 02:10:26;;;;;;;11.07;7.03;;;;;;;;;;4978667;28;21160;-78
2021/12/12 02:12:53;;;;;;;12.47;8.00;;;;;;;;;;4978028;28;21119;-77
2021/12/12 02:15:19;;;;;;;14.63;7.70;;;;;;;;;;4978791;28;20583;-77
2021/12/12 02:17:48;;;;;;;12.47;6.57;;;;;;;;;;4994541;28;20437;-77
2021/12/12 02:20:28;;;;;;;13.67;7.60;;;;;;;;;;4981123;28;20451;-77
2021/12/12 02:23:06;;;;;;;12.80;7.50;;;;;;;;;;4966293;28;20536;-77
2021/12/12 02:36:42;;;;;;;15.40;8.80;;;;;;;;;;4980623;28;21219;-78
2021/12/12 02:39:15;;;;;;;12.13;7.13;;;;;;;;;;4976374;28;20471;-77
2021/12/12 02:41:42;;;;;;;13.53;7.90;;;;;;;;;;4974725;28;20449;-77
2021/12/12 02:44:09;;;;;;;9.70;6.53;;;;;;;;;;4977338;28;20513;-77
2021/12/12 02:46:37;;;;;;;14.83;6.73;;;;;;;;;;4978219;28;20412;-77
2021/12/12 02:49:09;;;;;;;9.27;6.60;;;;;;;;;;4976242;28;20417;-77
2021/12/12 02:51:39;;;;;;;10.83;6.43;;;;;;;;;;4974775;28;20416;-77
2021/12/12 02:54:06;;;;;;;8.97;5.77;;;;;;;;;;4979361;28;20421;-78
2021/12/12 02:56:34;;;;;;;10.93;6.80;;;;;;;;;;4976643;28;21309;-77
2021/12/12 02:59:03;;;;;;;11.20;5.53;;;;;;;;;;4977015;28;20428;-77
2021/12/12 03:01:32;;;;;;;8.67;5.70;;;;;;;;;;4976452;28;20456;-78
2021/12/12 03:03:59;;;;;;;7.77;5.53;;;;;;;;;;4992492;28;20444;-77
2021/12/12 03:06:29;;;;;;;9.20;5.80;;;;;;;;;;4978867;28;20876;-77
2021/12/12 03:08:59;;;;;;;8.53;6.03;;;;;;;;;;4975007;28;20501;-78
2021/12/12 03:11:27;;;;;;;10.17;5.20;;;;;;;;;;4978525;28;20425;-78
2021/12/12 03:13:54;;;;;;;8.63;5.47;;;;;;;;;;4992716;28;21322;-78
2021/12/12 03:16:20;;;;;;;10.87;6.50;;;;;;;;;;4980418;28;21025;-77
2021/12/12 03:18:47;;;;;;;9.33;5.53;;;;;;;;;;4959960;28;20436;-77
2021/12/12 03:21:32;;;;;;;9.47;5.83;;;;;;;;;;4979920;28;20452;-77
2021/12/12 03:24:07;;;;;;;6.93;5.37;;;;;;;;;;4995213;28;21140;-77
2021/12/12 03:26:34;;;;;;;8.43;5.80;;;;;;;;;;5000730;28;20423;-77
2021/12/12 03:29:01;;;;;;;11.33;6.33;;;;;;;;;;4981244;28;20494;-77
2021/12/12 03:31:29;;;;;;;10.30;6.20;;;;;;;;;;4978397;28;20438;-78
2021/12/12 03:33:56;;;;;;;10.73;6.70;;;;;;;;;;4985790;28;20420;-78
2021/12/12 03:36:23;;;;;;;11.57;6.93;;;;;;;;;;4986979;28;20416;-78
2021/12/12 03:38:54;;;;;;;11.83;5.90;;;;;;;;;;4983930;28;21103;-78
2021/12/12 03:41:23;;;;;;;10.97;6.63;;;;;;;;;;4981181;28;20443;-78
2021/12/12 03:43:57;;;;;;;9.67;6.70;;;;;;;;;;4979626;28;20428;-78
2021/12/12 03:46:23;;;;;;;12.63;6.53;;;;;;;;;;4981664;28;20456;-78
2021/12/12 03:48:50;;;;;;;8.47;4.70;;;;;;;;;;4962843;28;20429;-78
2021/12/12 03:51:18;;;;;;;7.83;5.57;;;;;;;;;;4964461;28;20455;-78
2021/12/12 03:53:44;;;;;;;7.13;4.37;;;;;;;;;;4962855;28;20425;-78
2021/12/12 03:56:11;;;;;;;8.33;4.20;;;;;;;;;;4968640;28;21363;-77
2021/12/12 03:58:38;;;;;;;6.27;4.20;;;;;;;;;;4983668;28;20514;-77
2021/12/12 04:01:43;;;;;;;7.90;4.63;;;;;;;;;;4981291;28;20459;-77
2021/12/12 04:04:14;;;;;;;8.07;4.60;;;;;;;;;;4908960;28;20447;-77
2021/12/12 04:06:41;;;;;;;7.10;4.10;;;;;;;;;;4908878;29;20530;-78
2021/12/12 04:09:08;;;;;;;11.13;4.90;;;;;;;;;;4949167;28;20432;-77
2021/12/12 04:11:40;;;;;;;5.97;3.87;;;;;;;;;;4981188;28;20420;-78
2021/12/12 04:14:07;;;;;;;7.23;4.57;;;;;;;;;;4980503;28;20445;-78
2021/12/12 04:16:36;;;;;;;6.20;4.10;;;;;;;;;;4963018;28;20425;-78
2021/12/12 04:19:03;;;;;;;5.93;4.10;;;;;;;;;;4970294;28;21482;-78
2021/12/12 04:21:29;;;;;;;6.00;3.80;;;;;;;;;;4979893;28;20440;-78
2021/12/12 04:23:56;;;;;;;8.40;4.10;;;;;;;;;;4963883;28;20456;-78
2021/12/12 04:26:24;;;;;;;5.93;3.83;;;;;;;;;;4980017;28;21276;-77
2021/12/12 04:28:59;;;;;;;5.27;3.50;;;;;;;;;;4996762;28;20515;-77
2021/12/12 04:31:26;;;;;;;5.43;3.50;;;;;;;;;;4961721;28;20428;-78
2021/12/12 04:33:53;;;;;;;6.97;3.67;;;;;;;;;;4981705;28;21088;-78
2021/12/12 04:36:24;;;;;;;5.77;4.10;;;;;;;;;;4980565;28;20548;-78
2021/12/12 04:38:50;;;;;;;5.97;3.60;;;;;;;;;;4964627;28;20420;-78
2021/12/12 04:41:16;;;;;;;6.13;3.77;;;;;;;;;;4981998;28;20453;-77
2021/12/12 04:43:42;;;;;;;4.37;3.20;;;;;;;;;;4981208;28;20436;-77
2021/12/12 04:46:10;;;;;;;5.67;3.60;;;;;;;;;;4993099;28;20469;-77
2021/12/12 04:51:30;;;;;;;5.53;3.20;;;;;;;;;;4980563;28;20466;-77
2021/12/12 04:54:01;;;;;;;5.63;3.50;;;;;;;;;;4978921;28;20432;-77
2021/12/12 04:56:46;;;;;;;5.13;3.47;;;;;;;;;;4966325;28;20416;-78
2021/12/12 04:59:41;;;;;;;3.87;3.10;;;;;;;;;;4979423;28;20420;-77
2021/12/12 05:02:08;;;;;;;5.07;3.30;;;;;;;;;;4967087;28;20475;-77
2021/12/12 05:04:45;;;;;;;7.17;3.37;;;;;;;;;;4982221;28;20496;-78
2021/12/12 05:07:13;;;;;;;5.30;3.80;;;;;;;;;;4977446;28;21449;-77
2021/12/12 05:09:39;;;;;;;4.73;3.20;;;;;;;;;;4978751;28;20433;-78
2021/12/12 05:12:10;;;;;;;6.23;3.83;;;;;;;;;;4976374;28;20448;-77
2021/12/12 05:14:38;;;;;;;5.40;3.97;;;;;;;;;;4979462;28;20435;-77
2021/12/12 05:17:18;;;;;;;8.60;5.03;;;;;;;;;;4976684;28;20434;-79
2021/12/12 05:19:47;;;;;;;7.43;4.90;;;;;;;;;;4978537;28;20443;-78
2021/12/12 05:22:15;;;;;;;10.63;4.80;;;;;;;;;;4978068;28;20452;-78
2021/12/12 05:24:42;;;;;;;6.37;5.00;;;;;;;;;;4961266;28;20453;-78
2021/12/12 05:27:18;;;;;;;8.40;5.40;;;;;;;;;;4983062;28;20425;-78
2021/12/12 05:29:46;;;;;;;7.70;5.03;;;;;;;;;;4996058;28;21364;-78
2021/12/12 05:32:13;;;;;;;8.23;5.13;;;;;;;;;;4980740;28;20440;-78
2021/12/12 05:34:41;;;;;;;6.90;4.50;;;;;;;;;;4965955;28;20607;-78
2021/12/12 05:37:10;;;;;;;10.17;4.60;;;;;;;;;;4979131;28;20424;-77
2021/12/12 05:39:36;;;;;;;7.57;4.73;;;;;;;;;;4979104;28;21612;-77
2021/12/12 05:42:02;;;;;;;8.33;4.83;;;;;;;;;;4979234;28;20458;-77
2021/12/12 05:44:30;;;;;;;9.40;4.53;;;;;;;;;;4979429;28;20421;-77
2021/12/12 05:46:57;;;;;;;7.10;4.60;;;;;;;;;;4979485;28;21400;-77
2021/12/12 05:49:23;;;;;;;9.20;4.77;;;;;;;;;;4981712;28;20479;-77
2021/12/12 05:51:50;;;;;;;7.20;4.40;;;;;;;;;;4959399;28;20461;-77
2021/12/12 05:54:16;;;;;;;7.23;4.80;;;;;;;;;;4979650;28;20419;-78
2021/12/12 05:56:42;;;;;;;7.57;4.63;;;;;;;;;;4978006;28;20436;-78
2021/12/12 05:59:10;;;;;;;9.73;4.90;;;;;;;;;;4977219;28;20569;-77
2021/12/12 06:01:36;;;;;;;6.87;5.20;;;;;;;;;;4978063;28;20517;-77
2021/12/12 06:04:03;;;;;;;10.83;5.57;;;;;;;;;;4994428;28;20425;-77
2021/12/12 06:06:31;;;;;;;9.97;5.67;;;;;;;;;;4978889;28;20429;-77
2021/12/12 06:08:58;;;;;;;11.37;6.10;;;;;;;;;;4963967;28;20456;-77
2021/12/12 06:11:25;;;;;;;9.67;6.00;;;;;;;;;;4980174;28;20435;-77
2021/12/12 06:13:52;;;;;;;10.00;5.37;;;;;;;;;;4968076;28;21321;-77
2021/12/12 06:16:19;;;;;;;10.30;5.73;;;;;;;;;;4980107;28;20433;-77
2021/12/12 06:18:51;;;;;;;9.90;5.97;;;;;;;;;;4979719;28;20440;-77
2021/12/12 06:21:17;;;;;;;10.27;6.73;;;;;;;;;;4979405;28;20775;-77
2021/12/12 06:23:43;;;;;;;11.07;5.70;;;;;;;;;;4979567;28;20444;-77
2021/12/12 06:26:10;;;;;;;8.90;5.07;;;;;;;;;;4962397;28;20435;-78
2021/12/12 06:28:38;;;;;;;8.93;5.70;;;;;;;;;;4977826;28;20420;-77
2021/12/12 06:31:05;;;;;;;8.47;5.10;;;;;;;;;;4991822;28;20439;-77
2021/12/12 06:33:32;;;;;;;8.97;5.33;;;;;;;;;;4980452;28;20432;-77
2021/12/12 06:35:58;;;;;;;12.53;5.30;;;;;;;;;;4961211;28;20439;-78
2021/12/12 06:38:25;;;;;;;10.93;5.60;;;;;;;;;;4976876;28;20421;-77
2021/12/12 06:40:52;;;;;;;10.20;6.10;;;;;;;;;;4978512;28;20534;-78
2021/12/12 06:43:19;;;;;;;9.23;6.17;;;;;;;;;;4975874;28;20424;-77
2021/12/12 06:45:45;;;;;;;9.00;4.80;;;;;;;;;;4963124;28;20429;-77
2021/12/12 06:48:13;;;;;;;7.90;4.80;;;;;;;;;;4978567;28;20436;-78
2021/12/12 06:50:40;;;;;;;11.03;5.57;;;;;;;;;;4966582;28;20606;-77
2021/12/12 06:53:08;;;;;;;9.57;6.30;;;;;;;;;;4970089;28;20440;-78
2021/12/12 06:55:36;;;;;;;11.57;5.43;;;;;;;;;;4982267;28;20424;-78
2021/12/12 06:58:04;;;;;;;9.83;5.47;;;;;;;;;;4981373;28;20551;-78
2021/12/12 07:00:30;;;;;;;12.80;5.20;;;;;;;;;;4964199;28;22264;-78
2021/12/12 07:02:57;;;;;;;9.67;4.80;;;;;;;;;;4982983;28;20438;-77
2021/12/12 07:05:24;;;;;;;10.47;4.93;;;;;;;;;;4980215;28;20420;-77
2021/12/12 07:07:51;;;;;;;8.17;4.80;;;;;;;;;;4982885;28;20427;-77
2021/12/12 07:10:18;;;;;;;12.07;5.00;;;;;;;;;;4980014;28;20416;-77
2021/12/12 07:12:46;;;;;;;11.33;4.50;;;;;;;;;;4985257;28;20515;-77
2021/12/12 07:15:16;;;;;;;6.10;4.13;;;;;;;;;;4981621;28;21155;-78
2021/12/12 07:17:42;;;;;;;7.77;3.60;;;;;;;;;;4982118;28;20429;-77
2021/12/12 07:20:10;;;;;;;11.43;4.40;;;;;;;;;;4982321;28;20428;-77
2021/12/12 07:22:36;;;;;;;6.30;3.87;;;;;;;;;;4982737;28;20443;-77
2021/12/12 07:25:04;;;;;;;5.60;3.47;;;;;;;;;;4979641;28;20433;-77
2021/12/12 07:27:30;;;;;;;5.63;3.77;;;;;;;;;;4967706;28;20421;-78
2021/12/12 07:29:57;;;;;;;8.40;4.23;;;;;;;;;;4981531;28;20435;-77
2021/12/12 07:32:23;;;;;;;5.83;3.80;;;;;;;;;;4979845;28;20421;-77
2021/12/12 07:34:49;;;;;;;6.57;3.60;;;;;;;;;;4973539;28;20433;-77
2021/12/12 07:37:15;;;;;;;5.43;3.50;;;;;;;;;;4976289;28;20451;-77
2021/12/12 07:39:43;;;;;;;7.77;3.67;;;;;;;;;;4980138;28;20433;-78
2021/12/12 07:42:09;;;;;;;5.77;3.27;;;;;;;;;;4983543;28;21033;-78
2021/12/12 07:44:40;;;;;;;5.90;3.10;;;;;;;;;;4963175;28;20483;-78
2021/12/12 07:47:13;;;;;;;5.20;3.27;;;;;;;;;;4980361;28;20428;-78
2021/12/12 07:49:41;;;;;;;4.57;3.00;;;;;;;;;;4981571;28;20519;-78
2021/12/12 07:52:09;;;;;;;5.60;2.87;;;;;;;;;;4976268;28;20425;-78
2021/12/12 07:54:35;;;;;;;5.33;3.30;;;;;;;;;;4985783;28;20432;-78
2021/12/12 07:57:02;;;;;;;3.73;3.10;;;;;;;;;;4978891;28;20424;-79
2021/12/12 07:59:29;;;;;;;5.37;2.80;;;;;;;;;;4969083;28;20428;-79
2021/12/12 08:01:55;;;;;;;4.30;3.10;;;;;;;;;;4984209;28;20463;-78
2021/12/12 08:04:26;;;;;;;5.10;2.63;;;;;;;;;;4968770;28;21149;-78
2021/12/12 08:06:52;;;;;;;4.67;2.70;;;;;;;;;;4980413;28;20405;-79
2021/12/12 08:09:19;;;;;;;4.07;2.90;;;;;;;;;;4996491;28;21402;-78
2021/12/12 08:11:46;;;;;;;5.37;2.67;;;;;;;;;;4980813;28;20429;-79
2021/12/12 08:14:14;;;;;;;6.03;3.00;;;;;;;;;;4981946;28;20439;-78
2021/12/12 08:16:40;;;;;;;5.37;3.10;;;;;;;;;;4965116;28;21198;-78
2021/12/12 08:19:07;;;;;;;6.00;3.37;;;;;;;;;;4981553;28;20436;-78
2021/12/12 08:21:33;;;;;;;9.83;2.97;;;;;;;;;;4976035;28;20448;-78
2021/12/12 08:24:05;;;;;;;7.10;3.40;;;;;;;;;;4956817;28;20611;-79
2021/12/12 08:26:33;;;;;;;4.70;3.17;;;;;;;;;;4979855;28;20507;-79
2021/12/12 08:28:59;;;;;;;12.50;4.03;;;;;;;;;;4984475;28;20432;-79
2021/12/12 08:31:26;;;;;;;7.83;3.57;;;;;;;;;;4982685;28;20430;-79
2021/12/12 08:33:52;;;;;;;8.27;3.27;;;;;;;;;;4981960;28;20428;-79
2021/12/12 08:36:19;;;;;;;5.40;3.57;;;;;;;;;;4977907;28;20462;-79
2021/12/12 08:38:45;;;;;;;9.33;3.33;;;;;;;;;;4976336;28;20420;-79
2021/12/12 08:41:11;;;;;;;10.60;3.40;;;;;;;;;;4963280;28;21597;-78
2021/12/12 08:43:39;;;;;;;6.70;3.40;;;;;;;;;;4977235;28;20447;-79
2021/12/12 08:46:07;;;;;;;7.80;3.40;;;;;;;;;;4959193;28;20428;-79
2021/12/12 08:48:35;;;;;;;5.87;3.07;;;;;;;;;;4981634;28;20420;-79
2021/12/12 08:51:05;;;;;;;7.60;3.40;;;;;;;;;;4969622;28;20480;-79
2021/12/12 08:53:32;;;;;;;4.63;3.30;;;;;;;;;;4965771;28;20432;-80
2021/12/12 08:55:58;;;;;;;6.37;3.37;;;;;;;;;;4985588;28;20436;-80
2021/12/12 08:58:27;;;;;;;6.90;3.10;;;;;;;;;;4985722;28;20440;-80
2021/12/12 09:00:56;;;;;;;9.23;3.63;;;;;;;;;;4967829;28;20456;-80
2021/12/12 09:03:25;;;;;;;7.93;3.57;;;;;;;;;;4981467;28;20428;-79
2021/12/12 09:05:52;;;;;;;8.23;3.57;;;;;;;;;;4998504;28;20424;-79
2021/12/12 09:08:30;;;;;;;7.67;3.97;;;;;;;;;;4970522;28;20433;-79
2021/12/12 09:11:03;;;;;;;8.10;3.50;;;;;;;;;;4971749;28;20429;-80
2021/12/12 09:13:33;;;;;;;5.33;3.30;;;;;;;;;;4981644;28;20700;-79
2021/12/12 09:16:06;;;;;;;10.10;3.60;;;;;;;;;;4982245;28;20447;-79
2021/12/12 09:18:37;;;;;;;5.90;3.27;;;;;;;;;;4984131;28;20524;-80
2021/12/12 09:21:07;;;;;;;8.67;3.70;;;;;;;;;;4980492;28;21468;-80
2021/12/12 09:24:01;;;;;;;6.33;3.27;;;;;;;;;;4991688;28;20412;-80
2021/12/12 09:26:28;;;;;;;5.20;3.20;;;;;;;;;;4970460;28;20437;-80
2021/12/12 09:28:57;;;;;;;7.03;3.27;;;;;;;;;;4986165;28;20439;-80
2021/12/12 09:31:35;;;;;;;6.00;3.33;;;;;;;;;;4986409;28;20412;-81
2021/12/12 09:34:24;;;;;;;8.60;3.10;;;;;;;;;;4988009;28;20432;-81
2021/12/12 09:36:55;;;;;;;6.77;3.13;;;;;;;;;;4927952;28;20871;-81
2021/12/12 09:39:25;;;;;;;6.47;3.70;;;;;;;;;;4988006;28;20703;-79
2021/12/12 09:42:10;;;;;;;5.83;3.17;;;;;;;;;;4974681;28;20445;-81
2021/12/12 09:44:49;;;;;;;7.77;3.50;;;;;;;;;;4969882;28;20429;-80
2021/12/12 09:47:58;;;;;;;11.17;3.70;;;;;;;;;;4986005;28;20431;-79
2021/12/12 09:53:27;;;;;;;9.70;4.10;;;;;;;;;;4990440;28;20454;-80
2021/12/12 09:55:56;;;;;;;10.20;3.77;;;;;;;;;;4986646;28;20405;-81
2021/12/12 09:58:29;;;;;;;6.40;3.73;;;;;;;;;;4987015;28;20425;-81
2021/12/12 10:00:58;;;;;;;8.90;3.47;;;;;;;;;;4983650;28;20515;-81
2021/12/12 10:03:24;;;;;;;10.07;4.03;;;;;;;;;;4973902;28;20420;-81
2021/12/12 10:05:53;;;;;;;8.40;4.07;;;;;;;;;;4970547;28;20439;-80
2021/12/12 10:08:25;;;;;;;5.20;3.37;;;;;;;;;;4970390;28;20448;-80
2021/12/12 10:11:06;;;;;;;5.63;3.60;;;;;;;;;;4984473;28;20429;-81
2021/12/12 10:13:39;;;;;;;8.57;3.60;;;;;;;;;;4988533;28;20420;-82
2021/12/12 10:16:08;;;;;;;7.67;3.70;;;;;;;;;;4981818;28;21113;-80
2021/12/12 10:18:40;;;;;;;7.07;3.73;;;;;;;;;;4983355;28;21476;-80
2021/12/12 10:21:09;;;;;;;6.57;3.70;;;;;;;;;;4966085;28;20606;-81
2021/12/12 10:23:44;;;;;;;7.37;4.30;;;;;;;;;;4982804;28;20434;-81
2021/12/12 10:26:34;;;;;;;5.07;3.70;;;;;;;;;;4968458;28;20428;-80
2021/12/12 10:29:07;;;;;;;6.47;3.80;;;;;;;;;;4989067;28;20436;-80
2021/12/12 10:31:43;;;;;;;5.57;3.87;;;;;;;;;;4986962;28;20425;-80
2021/12/12 10:34:11;;;;;;;5.93;3.90;;;;;;;;;;4979678;28;21087;-80
2021/12/12 10:36:40;;;;;;;6.40;3.83;;;;;;;;;;4984028;28;20953;-80
2021/12/12 10:39:19;;;;;;;4.93;3.73;;;;;;;;;;4987596;28;20468;-80
2021/12/12 10:41:48;;;;;;;8.50;4.40;;;;;;;;;;4972930;28;21315;-80
2021/12/12 10:44:19;;;;;;;5.70;4.30;;;;;;;;;;4983644;28;20416;-81
2021/12/12 10:46:52;;;;;;;4.93;3.70;;;;;;;;;;4968263;28;20405;-80
2021/12/12 10:49:35;;;;;;;6.30;3.80;;;;;;;;;;4987441;28;20509;-81
2021/12/12 10:52:02;;;;;;;6.43;4.87;;;;;;;;;;4986569;28;20425;-80
2021/12/12 10:54:35;;;;;;;7.90;4.33;;;;;;;;;;4988274;28;20539;-81
2021/12/12 10:57:08;;;;;;;6.40;3.80;;;;;;;;;;4989062;28;20190;-80
2021/12/12 10:59:36;;;;;;;5.47;3.77;;;;;;;;;;4965786;28;20413;-80
2021/12/12 11:02:08;;;;;;;4.67;3.73;;;;;;;;;;4983129;28;20483;-80
2021/12/12 11:04:48;;;;;;;4.07;3.43;;;;;;;;;;4983793;28;20292;-80
2021/12/12 11:07:21;;;;;;;4.87;3.37;;;;;;;;;;4980046;28;20954;-80
2021/12/12 11:10:05;;;;;;;4.67;3.30;;;;;;;;;;4982126;28;20437;-81
2021/12/12 11:12:35;;;;;;;3.90;3.03;;;;;;;;;;4983335;28;20435;-81
2021/12/12 11:15:27;;;;;;;6.10;3.53;;;;;;;;;;4983125;28;20472;-81
2021/12/12 11:18:12;;;;;;;4.20;3.27;;;;;;;;;;4947056;28;20236;-81
2021/12/12 11:20:41;;;;;;;4.67;3.50;;;;;;;;;;4974992;28;22136;-81
2021/12/12 11:23:13;;;;;;;4.63;3.50;;;;;;;;;;4991277;28;20293;-82
2021/12/12 11:25:57;;;;;;;6.10;3.50;;;;;;;;;;4966982;28;20429;-81
2021/12/12 11:28:26;;;;;;;5.83;3.70;;;;;;;;;;4983712;28;21077;-81
2021/12/12 11:30:55;;;;;;;4.03;3.10;;;;;;;;;;4982978;28;20420;-81
2021/12/12 11:33:23;;;;;;;3.80;3.10;;;;;;;;;;4983328;28;20425;-81
2021/12/12 11:35:51;;;;;;;3.60;3.13;;;;;;;;;;4986753;28;20497;-81
2021/12/12 11:38:21;;;;;;;4.40;3.40;;;;;;;;;;4977507;28;20444;-81
2021/12/12 11:40:50;;;;;;;4.97;3.03;;;;;;;;;;4971889;28;20532;-81
2021/12/12 11:43:35;;;;;;;4.93;3.50;;;;;;;;;;4967650;28;20424;-80
2021/12/12 11:46:04;;;;;;;3.77;3.03;;;;;;;;;;4998210;28;20747;-81
2021/12/12 11:48:30;;;;;;;6.73;3.70;;;;;;;;;;4986589;28;20435;-80
2021/12/12 11:50:59;;;;;;;6.30;3.83;;;;;;;;;;4986696;28;20186;-80
2021/12/12 11:53:44;;;;;;;5.73;3.33;;;;;;;;;;4986182;28;20178;-80
2021/12/12 11:56:13;;;;;;;5.77;3.70;;;;;;;;;;4983380;28;20510;-81
2021/12/12 11:58:42;;;;;;;4.50;3.37;;;;;;;;;;4987513;28;20181;-81
2021/12/12 12:01:18;;;;;;;5.43;3.13;;;;;;;;;;4989129;28;21324;-81
2021/12/12 12:04:03;;;;;;;7.50;3.60;;;;;;;;;;4988948;28;20425;-81
2021/12/12 12:06:32;;;;;;;5.47;3.90;;;;;;;;;;4967970;28;20435;-81
2021/12/12 12:09:18;;;;;;;5.73;3.57;;;;;;;;;;4989785;28;20435;-81
2021/12/12 12:11:50;;;;;;;5.07;3.87;;;;;;;;;;4985963;28;21334;-81
2021/12/12 12:14:28;;;;;;;5.67;3.97;;;;;;;;;;5003140;28;20429;-81
2021/12/12 12:17:21;;;;;;;4.67;3.43;;;;;;;;;;4983108;28;20435;-81
2021/12/12 12:19:53;;;;;;;4.57;3.70;;;;;;;;;;4950225;28;20202;-81
2021/12/12 12:22:28;;;;;;;4.33;3.50;;;;;;;;;;4986331;28;20439;-81
2021/12/12 12:25:15;;;;;;;6.33;3.63;;;;;;;;;;4985511;28;20295;-81
2021/12/12 12:27:44;;;;;;;7.37;3.67;;;;;;;;;;4981048;28;20437;-82
2021/12/12 12:30:36;;;;;;;4.80;3.70;;;;;;;;;;4996709;28;20440;-81
2021/12/12 12:33:21;;;;;;;9.10;4.50;;;;;;;;;;4943399;28;20537;-81
2021/12/12 12:36:02;;;;;;;6.87;3.93;;;;;;;;;;4986777;28;20633;-81
2021/12/12 12:38:47;;;;;;;4.97;3.53;;;;;;;;;;4986598;28;20479;-81
2021/12/12 12:41:36;;;;;;;6.80;3.97;;;;;;;;;;4983167;28;20198;-81
2021/12/12 12:44:21;;;;;;;6.37;3.73;;;;;;;;;;4976857;28;20181;-81
2021/12/12 12:47:06;;;;;;;6.10;3.30;;;;;;;;;;4988422;28;21055;-81
2021/12/12 12:49:50;;;;;;;5.03;3.57;;;;;;;;;;4975727;28;20180;-82
2021/12/12 12:52:46;;;;;;;5.37;3.70;;;;;;;;;;4962702;28;20889;-81
2021/12/12 12:55:21;;;;;;;5.73;3.73;;;;;;;;;;4955935;28;20219;-81
2021/12/12 12:57:48;;;;;;;4.00;3.30;;;;;;;;;;4969188;28;20881;-81
2021/12/12 13:00:17;;;;;;;6.27;3.57;;;;;;;;;;4985979;28;20189;-81
2021/12/12 13:02:43;;;;;;;5.37;3.87;;;;;;;;;;4982989;28;20190;-81
2021/12/12 13:05:22;;;;;;;4.83;3.33;;;;;;;;;;4969672;28;20169;-81
2021/12/12 13:08:07;;;;;;;6.03;4.10;;;;;;;;;;4987123;28;20240;-82
2021/12/12 13:10:33;;;;;;;7.23;4.07;;;;;;;;;;4984545;28;21310;-82
2021/12/12 13:13:06;;;;;;;4.80;3.77;;;;;;;;;;4968126;28;20224;-82
2021/12/12 13:15:44;;;;;;;5.10;3.70;;;;;;;;;;4984401;28;20177;-82
2021/12/12 13:18:21;;;;;;;6.30;3.77;;;;;;;;;;4981048;28;20194;-82
2021/12/12 13:21:05;;;;;;;9.70;3.80;;;;;;;;;;4983859;28;20193;-82
2021/12/12 13:23:53;;;;;;;6.23;4.10;;;;;;;;;;4977715;28;20346;-81
2021/12/12 13:26:27;;;;;;;4.17;3.23;;;;;;;;;;4967331;28;20829;-81
2021/12/12 13:29:03;;;;;;;8.77;4.37;;;;;;;;;;4984478;28;20639;-81
2021/12/12 13:31:39;;;;;;;5.70;3.50;;;;;;;;;;4981056;28;20189;-81
2021/12/12 13:34:25;;;;;;;4.27;3.33;;;;;;;;;;4983399;28;20423;-81
2021/12/12 13:37:15;;;;;;;6.33;3.57;;;;;;;;;;4980202;28;21003;-81
2021/12/12 13:39:41;;;;;;;4.47;3.23;;;;;;;;;;4986415;28;20166;-81
2021/12/12 13:42:19;;;;;;;4.83;3.63;;;;;;;;;;4984078;28;20202;-81
2021/12/12 13:44:45;;;;;;;7.97;3.43;;;;;;;;;;4982460;28;20197;-81
2021/12/12 13:47:14;;;;;;;5.30;3.20;;;;;;;;;;4981229;28;20180;-81
2021/12/12 13:49:48;;;;;;;5.43;3.70;;;;;;;;;;4981070;28;20529;-81
2021/12/12 13:52:31;;;;;;;6.03;3.77;;;;;;;;;;4986873;28;20413;-81
2021/12/12 13:55:05;;;;;;;4.87;3.27;;;;;;;;;;4961032;28;20987;-81
2021/12/12 13:57:37;;;;;;;6.10;3.40;;;;;;;;;;4981848;28;20185;-81
2021/12/12 14:00:03;;;;;;;5.00;3.63;;;;;;;;;;4979133;28;20464;-81
2021/12/12 14:02:29;;;;;;;6.63;3.30;;;;;;;;;;4979474;28;20464;-81
2021/12/12 14:05:02;;;;;;;6.33;3.87;;;;;;;;;;4985866;28;20432;-82
2021/12/12 14:07:34;;;;;;;7.70;3.67;;;;;;;;;;4982428;28;20186;-81
2021/12/12 14:10:02;;;;;;;6.27;3.90;;;;;;;;;;4983121;28;20209;-81
2021/12/12 14:12:31;;;;;;;6.60;3.57;;;;;;;;;;4980498;28;20427;-81
2021/12/12 14:15:04;;;;;;;5.47;3.80;;;;;;;;;;4982523;28;20182;-81
2021/12/12 14:17:33;;;;;;;5.70;3.67;;;;;;;;;;4999875;28;20178;-80
2021/12/12 14:20:01;;;;;;;6.60;4.00;;;;;;;;;;4981080;28;20444;-81
2021/12/12 14:22:27;;;;;;;6.87;4.10;;;;;;;;;;4978172;28;20205;-81
2021/12/12 14:24:57;;;;;;;9.77;4.50;;;;;;;;;;4979559;28;20177;-80
2021/12/12 14:27:23;;;;;;;10.33;4.00;;;;;;;;;;4978396;28;20516;-81
2021/12/12 14:29:51;;;;;;;10.07;4.07;;;;;;;;;;4979290;28;20412;-81
2021/12/12 14:32:20;;;;;;;7.67;4.20;;;;;;;;;;4966507;28;20248;-81
2021/12/12 14:34:57;;;;;;;10.17;4.00;;;;;;;;;;4982338;28;20446;-80
2021/12/12 14:37:26;;;;;;;6.50;3.63;;;;;;;;;;4981408;28;20427;-81
2021/12/12 14:39:52;;;;;;;13.07;3.77;;;;;;;;;;4982638;28;20189;-81
2021/12/12 14:42:26;;;;;;;6.70;3.70;;;;;;;;;;4965170;28;20508;-81
2021/12/12 14:44:54;;;;;;;6.83;3.60;;;;;;;;;;4981228;28;20174;-81
2021/12/12 14:47:28;;;;;;;6.90;3.80;;;;;;;;;;4979970;28;21283;-81
2021/12/12 14:49:56;;;;;;;5.43;3.50;;;;;;;;;;4983078;28;20180;-81
2021/12/12 14:52:30;;;;;;;5.33;3.57;;;;;;;;;;4980878;28;20435;-81
2021/12/12 14:55:09;;;;;;;6.57;3.50;;;;;;;;;;4979059;28;20795;-80
2021/12/12 14:57:36;;;;;;;5.77;3.60;;;;;;;;;;4968966;28;20184;-81
2021/12/12 15:00:12;;;;;;;7.83;4.07;;;;;;;;;;4980060;28;20432;-80
2021/12/12 15:02:40;;;;;;;6.40;4.13;;;;;;;;;;4984988;28;20458;-81
2021/12/12 15:05:06;;;;;;;5.67;3.67;;;;;;;;;;4980471;28;20182;-81
2021/12/12 15:07:36;;;;;;;5.57;3.90;;;;;;;;;;4983226;28;21279;-81
2021/12/12 15:10:09;;;;;;;4.87;3.67;;;;;;;;;;4984018;28;20526;-81
2021/12/12 15:12:40;;;;;;;13.90;5.43;;;;;;;;;;4986913;28;20432;-81
2021/12/12 15:15:08;;;;;;;15.53;4.90;;;;;;;;;;4984858;28;20444;-80
2021/12/12 15:17:34;;;;;;;8.83;4.17;;;;;;;;;;4983652;28;20466;-80